アラート の空港の天気 - METARとTAF

Alert Airport ( CYLT / YLT ) - カナダ ヌナブト準州アラート
飛行場実況気象(Metar)
観測時間02/15 16:00 EST (02/15 21:00 UTC)
風向・風速南西 2m/s
視程10km以上
天気現象細氷
全天の4割程度の雲 雲底高度 1070m
気温-33℃
湿度67%
気圧1021.4hPa
METARCYLT 152100Z 23003KT 12SM IC SCT035 M33/M37 A3014 RMK SC3 LAST OBS/NEXT 181300 UTC SLP214
過去の天気等 Google飛行場航空写真 Wunderground天気予報

過去48時間のMETAR

飛行場予報(TAF)
データがありません